Time;durP1;ratioP1;P1;durP2;ratioP2;P2;SDS_P1;SDS_P2;PMS_P1;PMS_P2;Temp;Humidity;BMP_temperature;BMP_pressure;BME280_temperature;BME280_humidity;BME280_pressure;Samples;Min_cycle;Max_cycle;Signal;HPM_P1;HPM_P2
2023/09/23 00:01:38;;;;;;;0.60;0.40;;;16.20;99.90;;;;;;5026310;28;20680;-72
2023/09/23 00:04:07;;;;;;;3.25;0.50;;;16.20;99.90;;;;;;5038332;28;20196;-70
2023/09/23 00:06:37;;;;;;;1.00;0.70;;;16.20;99.90;;;;;;5028022;28;20219;-70
2023/09/23 00:09:08;;;;;;;0.90;0.50;;;16.20;99.90;;;;;;5010908;28;20209;-71
2023/09/23 00:11:37;;;;;;;0.63;0.50;;;16.10;99.90;;;;;;5029546;28;20266;-70
2023/09/23 00:14:05;;;;;;;1.45;0.50;;;16.00;99.90;;;;;;5031007;28;20666;-71
2023/09/23 00:16:34;;;;;;;0.60;0.45;;;16.20;99.90;;;;;;5037994;28;20204;-70
2023/09/23 00:19:02;;;;;;;0.70;0.40;;;16.30;99.90;;;;;;5038676;28;20212;-70
2023/09/23 00:21:30;;;;;;;0.60;0.43;;;16.20;99.90;;;;;;5022281;28;20205;-70
2023/09/23 00:24:01;;;;;;;3.97;0.50;;;16.40;99.90;;;;;;5039673;28;20210;-70
2023/09/23 00:26:32;;;;;;;1.02;0.40;;;16.30;99.90;;;;;;5022425;28;20216;-70
2023/09/23 00:29:00;;;;;;;2.67;0.60;;;16.10;99.90;;;;;;5024900;28;20207;-70
2023/09/23 00:31:29;;;;;;;1.80;0.50;;;16.10;99.90;;;;;;5035491;28;20204;-71
2023/09/23 00:33:57;;;;;;;0.60;0.45;;;16.30;99.90;;;;;;5040810;28;20675;-71
2023/09/23 00:36:25;;;;;;;0.90;0.70;;;16.40;99.90;;;;;;5031961;28;20193;-71
2023/09/23 00:38:53;;;;;;;1.67;1.30;;;16.30;99.90;;;;;;5038095;28;20204;-72
2023/09/23 00:41:21;;;;;;;1.00;0.60;;;16.30;99.90;;;;;;5022481;28;20209;-70
2023/09/23 00:43:50;;;;;;;0.80;0.50;;;16.40;99.90;;;;;;5029869;28;20205;-70
2023/09/23 00:46:22;;;;;;;0.80;0.60;;;16.50;99.90;;;;;;5035215;28;20230;-70
2023/09/23 00:48:51;;;;;;;0.70;0.50;;;16.40;99.90;;;;;;5040766;28;20769;-69
2023/09/23 00:51:21;;;;;;;0.60;0.45;;;16.30;99.90;;;;;;5030546;28;20208;-68
2023/09/23 00:53:50;;;;;;;0.60;0.50;;;16.30;99.90;;;;;;5040558;28;20265;-68
2023/09/23 00:56:23;;;;;;;0.68;0.57;;;16.30;99.90;;;;;;5022115;28;20246;-69
2023/09/23 00:58:52;;;;;;;0.60;0.40;;;16.60;99.90;;;;;;5039503;28;20205;-69
2023/09/23 01:01:21;;;;;;;2.05;0.60;;;16.40;99.90;;;;;;5041848;28;20761;-68
2023/09/23 01:03:49;;;;;;;0.68;0.50;;;16.20;99.90;;;;;;5040223;28;20243;-68
2023/09/23 01:06:19;;;;;;;2.63;0.60;;;16.00;99.90;;;;;;5027796;28;20212;-69
2023/09/23 01:08:49;;;;;;;0.95;0.47;;;15.90;99.90;;;;;;5040899;28;20204;-69
2023/09/23 01:11:17;;;;;;;0.70;0.60;;;15.80;99.90;;;;;;5022323;28;20573;-69
2023/09/23 01:13:50;;;;;;;0.95;0.57;;;15.70;99.90;;;;;;5021324;28;20249;-72
2023/09/23 01:16:21;;;;;;;0.70;0.60;;;15.80;99.90;;;;;;5026735;28;20201;-72
2023/09/23 01:18:50;;;;;;;0.60;0.40;;;15.90;99.90;;;;;;5022607;28;20215;-72
2023/09/23 01:21:18;;;;;;;0.70;0.50;;;15.60;99.90;;;;;;5042144;28;20694;-70
2023/09/23 01:23:48;;;;;;;0.60;0.50;;;15.40;99.90;;;;;;5023361;28;20213;-69
2023/09/23 01:26:16;;;;;;;0.60;0.50;;;15.20;99.90;;;;;;5045994;28;20224;-71
2023/09/23 01:28:45;;;;;;;2.00;0.50;;;15.40;99.90;;;;;;5045866;28;20590;-70
2023/09/23 01:31:14;;;;;;;0.95;0.57;;;15.50;99.90;;;;;;5034286;28;20200;-71
2023/09/23 01:33:42;;;;;;;1.60;0.50;;;15.60;99.90;;;;;;5025255;28;20279;-69
2023/09/23 01:36:11;;;;;;;1.13;0.40;;;15.90;99.90;;;;;;5044629;28;20250;-71
2023/09/23 01:38:41;;;;;;;0.70;0.50;;;15.90;99.90;;;;;;5030810;28;20208;-70
2023/09/23 01:41:10;;;;;;;0.60;0.50;;;15.80;99.90;;;;;;5035895;28;20590;-70
2023/09/23 01:43:48;;;;;;;1.08;0.50;;;16.00;99.90;;;;;;5021559;28;20201;-69
2023/09/23 01:46:16;;;;;;;0.88;0.45;;;16.10;99.90;;;;;;5017336;28;20225;-69
2023/09/23 01:48:45;;;;;;;0.60;0.50;;;15.60;99.90;;;;;;5041687;28;20235;-69
2023/09/23 01:51:16;;;;;;;1.83;0.70;;;15.10;99.90;;;;;;5033490;28;20204;-69
2023/09/23 01:53:44;;;;;;;0.60;0.50;;;15.10;99.90;;;;;;5033631;28;20212;-72
2023/09/23 01:56:13;;;;;;;0.60;0.50;;;15.10;99.90;;;;;;5041212;28;20228;-70
2023/09/23 01:58:41;;;;;;;0.60;0.40;;;15.00;99.90;;;;;;5025074;28;20200;-71
2023/09/23 02:01:10;;;;;;;0.80;0.50;;;15.00;99.90;;;;;;5043621;28;20244;-70
2023/09/23 02:03:38;;;;;;;0.73;0.50;;;15.30;99.90;;;;;;5031244;28;20251;-71
2023/09/23 02:06:06;;;;;;;0.77;0.52;;;15.40;99.90;;;;;;5048021;28;20269;-70
2023/09/23 02:08:34;;;;;;;0.90;0.50;;;15.50;99.90;;;;;;5041066;28;20608;-71
2023/09/23 02:11:02;;;;;;;2.90;0.50;;;15.40;99.90;;;;;;5034291;28;20224;-73
2023/09/23 02:13:36;;;;;;;1.70;0.60;;;15.60;99.90;;;;;;5034077;28;20668;-73
2023/09/23 02:16:05;;;;;;;0.98;0.50;;;15.60;99.90;;;;;;5030735;28;20263;-72
2023/09/23 02:18:37;;;;;;;0.60;0.50;;;15.60;99.90;;;;;;5032897;28;20200;-72
2023/09/23 02:21:06;;;;;;;0.93;0.50;;;15.90;99.90;;;;;;5042408;28;20227;-73
2023/09/23 02:23:34;;;;;;;2.13;0.60;;;15.80;99.90;;;;;;5024301;28;20295;-72
2023/09/23 02:26:02;;;;;;;11.10;7.28;;;15.90;99.90;;;;;;5040298;28;20215;-71
2023/09/23 02:28:32;;;;;;;1.15;0.90;;;16.30;99.90;;;;;;5041247;28;20283;-71
2023/09/23 02:31:00;;;;;;;1.10;0.68;;;16.00;99.90;;;;;;5024288;28;20232;-71
2023/09/23 02:33:29;;;;;;;3.55;0.57;;;15.90;99.90;;;;;;5034242;28;20216;-69
2023/09/23 02:35:57;;;;;;;1.42;0.90;;;15.90;99.90;;;;;;5028716;28;20580;-72
2023/09/23 02:38:25;;;;;;;1.52;0.70;;;16.00;99.90;;;;;;5020493;28;20198;-72
2023/09/23 02:40:54;;;;;;;0.80;0.50;;;16.10;99.90;;;;;;5037057;28;20233;-72
2023/09/23 02:43:22;;;;;;;1.10;0.90;;;16.20;99.90;;;;;;5034680;28;20227;-70
2023/09/23 02:45:56;;;;;;;1.10;0.80;;;16.00;99.90;;;;;;5032230;28;20217;-72
2023/09/23 02:48:24;;;;;;;1.40;0.68;;;16.20;99.90;;;;;;5033272;28;20236;-72
2023/09/23 02:50:53;;;;;;;0.95;0.70;;;16.10;99.90;;;;;;5040445;28;20227;-72
2023/09/23 02:53:21;;;;;;;0.60;0.40;;;16.10;99.90;;;;;;5025332;28;20217;-71
2023/09/23 02:55:52;;;;;;;1.55;0.50;;;16.10;99.90;;;;;;5027622;28;20617;-70
2023/09/23 02:58:21;;;;;;;1.13;0.60;;;16.00;99.90;;;;;;5032087;28;20204;-72
2023/09/23 03:00:57;;;;;;;0.70;0.60;;;15.80;99.90;;;;;;5023427;28;20237;-70
2023/09/23 03:03:27;;;;;;;1.00;0.70;;;15.90;99.90;;;;;;5028465;28;20213;-70
2023/09/23 03:05:57;;;;;;;0.70;0.60;;;15.80;99.90;;;;;;5026895;28;20209;-72
2023/09/23 03:08:25;;;;;;;0.80;0.65;;;15.80;99.90;;;;;;5030835;28;20220;-71
2023/09/23 03:10:53;;;;;;;0.63;0.40;;;15.80;99.90;;;;;;5027674;28;20221;-72
2023/09/23 03:13:23;;;;;;;0.60;0.50;;;15.80;99.90;;;;;;5020601;28;20200;-72
2023/09/23 03:15:58;;;;;;;0.80;0.60;;;15.70;99.90;;;;;;5032623;28;20216;-70
2023/09/23 03:18:29;;;;;;;0.80;0.60;;;15.60;99.90;;;;;;5040417;28;20206;-69
2023/09/23 03:20:57;;;;;;;0.80;0.50;;;15.70;99.90;;;;;;5039872;28;20220;-68
2023/09/23 03:23:26;;;;;;;0.80;0.70;;;15.50;99.90;;;;;;5027579;28;20208;-71
2023/09/23 03:25:56;;;;;;;0.60;0.60;;;15.50;99.90;;;;;;5027407;28;20719;-70
2023/09/23 03:28:24;;;;;;;0.80;0.40;;;15.70;99.90;;;;;;5031715;28;20278;-69
2023/09/23 03:31:00;;;;;;;0.60;0.50;;;15.90;99.90;;;;;;5039629;28;20657;-69
2023/09/23 03:33:28;;;;;;;0.70;0.50;;;15.90;99.90;;;;;;5032342;28;20208;-71
2023/09/23 03:35:57;;;;;;;0.82;0.50;;;15.90;99.90;;;;;;5023109;28;20697;-70
2023/09/23 03:38:25;;;;;;;1.15;0.50;;;15.90;99.90;;;;;;5038836;28;20195;-69
2023/09/23 03:40:59;;;;;;;0.70;0.50;;;15.80;99.90;;;;;;5038046;28;20256;-69
2023/09/23 03:43:27;;;;;;;0.70;0.50;;;15.40;99.90;;;;;;5037097;28;20561;-70
2023/09/23 03:45:57;;;;;;;0.60;0.50;;;15.30;99.90;;;;;;5039195;28;20208;-70
2023/09/23 03:48:26;;;;;;;0.60;0.40;;;15.40;99.90;;;;;;5031467;28;20217;-71
2023/09/23 03:50:54;;;;;;;1.33;0.60;;;15.50;99.90;;;;;;5039375;28;20278;-69
2023/09/23 03:53:23;;;;;;;0.85;0.50;;;15.60;99.90;;;;;;5041927;28;20274;-70
2023/09/23 03:55:54;;;;;;;0.60;0.40;;;15.80;99.90;;;;;;5042343;28;20216;-70
2023/09/23 03:58:22;;;;;;;0.60;0.40;;;15.90;99.90;;;;;;5039588;28;20192;-70
2023/09/23 04:00:54;;;;;;;0.73;0.50;;;16.00;99.90;;;;;;5030851;28;20236;-70
2023/09/23 04:03:23;;;;;;;0.60;0.50;;;15.90;99.90;;;;;;5038992;28;20196;-70
2023/09/23 04:05:57;;;;;;;0.60;0.50;;;15.80;99.90;;;;;;5038799;28;20290;-69
2023/09/23 04:08:26;;;;;;;0.70;0.50;;;15.90;99.90;;;;;;5042230;28;20716;-70
2023/09/23 04:10:54;;;;;;;0.90;0.60;;;15.60;99.90;;;;;;5028119;28;20228;-70
2023/09/23 04:13:22;;;;;;;10.82;0.95;;;15.40;99.90;;;;;;5021788;28;20296;-70
2023/09/23 04:15:50;;;;;;;0.70;0.50;;;15.50;99.90;;;;;;5030536;28;20227;-71
2023/09/23 04:18:19;;;;;;;0.60;0.50;;;15.60;99.90;;;;;;5038846;28;20208;-71
2023/09/23 04:20:53;;;;;;;0.70;0.52;;;15.50;99.90;;;;;;5024510;28;20240;-69
2023/09/23 04:23:21;;;;;;;0.60;0.50;;;15.70;99.90;;;;;;5037845;28;20201;-70
2023/09/23 04:25:50;;;;;;;0.60;0.50;;;15.80;99.90;;;;;;5024289;28;20244;-69
2023/09/23 04:28:18;;;;;;;0.98;0.50;;;15.90;99.90;;;;;;5020942;28;20221;-70
2023/09/23 04:30:46;;;;;;;0.60;0.50;;;16.10;99.90;;;;;;5022515;28;20233;-70
2023/09/23 04:33:14;;;;;;;0.80;0.50;;;16.30;99.90;;;;;;5023865;28;20222;-72
2023/09/23 04:35:42;;;;;;;0.68;0.50;;;16.40;99.90;;;;;;5036354;28;20200;-71
2023/09/23 04:38:12;;;;;;;0.70;0.60;;;16.10;99.90;;;;;;5033864;28;20196;-72
2023/09/23 04:40:40;;;;;;;1.20;0.70;;;15.70;99.90;;;;;;5042196;28;20230;-71
2023/09/23 04:43:10;;;;;;;0.80;0.47;;;15.30;99.90;;;;;;5041214;28;20200;-71
2023/09/23 04:45:38;;;;;;;1.00;0.68;;;15.10;99.90;;;;;;5030116;28;20216;-72
2023/09/23 04:48:06;;;;;;;1.05;0.70;;;14.80;99.90;;;;;;5022267;28;20636;-70
2023/09/23 04:50:38;;;;;;;0.60;0.60;;;14.70;99.90;;;;;;5033890;28;20221;-72
2023/09/23 04:53:07;;;;;;;1.05;0.65;;;14.50;99.90;;;;;;5018648;28;20205;-71
2023/09/23 04:55:37;;;;;;;0.80;0.60;;;14.40;99.90;;;;;;5032896;28;20205;-72
2023/09/23 04:58:06;;;;;;;0.80;0.60;;;14.20;99.90;;;;;;5042588;28;20205;-72
2023/09/23 05:00:36;;;;;;;3.20;0.70;;;14.40;99.90;;;;;;5028559;28;20232;-72
2023/09/23 05:03:05;;;;;;;0.85;0.60;;;14.20;99.90;;;;;;5042373;28;20204;-71
2023/09/23 05:05:34;;;;;;;1.35;0.57;;;14.80;99.90;;;;;;5017975;28;20266;-72
2023/09/23 05:08:06;;;;;;;1.27;0.70;;;14.90;99.90;;;;;;5042008;28;20248;-70
2023/09/23 05:10:35;;;;;;;1.65;0.60;;;14.50;99.90;;;;;;5034361;28;20239;-70
2023/09/23 05:13:06;;;;;;;0.98;0.60;;;14.10;99.90;;;;;;5033996;28;20204;-71
2023/09/23 05:15:33;;;;;;;0.90;0.60;;;14.00;99.90;;;;;;5033735;28;20211;-70
2023/09/23 05:18:02;;;;;;;1.30;0.65;;;13.60;99.90;;;;;;5041634;28;20377;-70
2023/09/23 05:20:30;;;;;;;1.00;0.70;;;14.00;99.90;;;;;;5026204;28;20224;-71
2023/09/23 05:23:04;;;;;;;0.80;0.63;;;13.70;99.90;;;;;;5033804;28;20263;-69
2023/09/23 05:25:33;;;;;;;0.73;0.68;;;13.30;99.90;;;;;;5029881;28;20202;-68
2023/09/23 05:28:02;;;;;;;1.30;1.00;;;13.30;99.90;;;;;;5037735;28;20220;-68
2023/09/23 05:30:32;;;;;;;0.80;0.80;;;13.00;99.90;;;;;;5028305;28;20243;-68
2023/09/23 05:33:00;;;;;;;1.80;0.77;;;12.40;99.90;;;;;;5031548;28;20211;-68
2023/09/23 05:35:28;;;;;;;0.70;0.70;;;12.60;99.90;;;;;;5026521;28;20209;-68
2023/09/23 05:37:56;;;;;;;3.40;0.80;;;12.70;99.90;;;;;;5045294;28;20211;-68
2023/09/23 05:40:27;;;;;;;0.80;0.60;;;12.90;99.90;;;;;;5042979;28;20265;-68
2023/09/23 05:42:56;;;;;;;1.10;1.00;;;12.90;99.90;;;;;;5034650;28;20197;-67
2023/09/23 05:45:24;;;;;;;2.08;1.02;;;12.80;99.90;;;;;;5020948;28;20552;-71
2023/09/23 05:47:54;;;;;;;0.70;0.68;;;12.70;99.90;;;;;;5027227;28;20213;-69
2023/09/23 05:50:23;;;;;;;1.48;0.80;;;12.70;99.90;;;;;;5031452;28;20236;-69
2023/09/23 05:52:52;;;;;;;0.98;0.70;;;12.80;99.90;;;;;;5041542;28;20219;-69
2023/09/23 05:55:21;;;;;;;2.15;0.90;;;13.00;99.90;;;;;;5030429;28;20305;-68
2023/09/23 05:57:49;;;;;;;1.98;0.90;;;12.90;99.90;;;;;;5021820;28;20228;-70
2023/09/23 06:00:17;;;;;;;5.82;1.45;;;13.00;99.90;;;;;;5027654;28;20275;-68
2023/09/23 06:02:47;;;;;;;1.45;1.05;;;13.10;99.90;;;;;;5035360;28;20232;-69
2023/09/23 06:05:18;;;;;;;1.33;0.75;;;13.10;99.90;;;;;;5037757;28;20234;-69
2023/09/23 06:07:46;;;;;;;1.58;0.88;;;13.10;99.90;;;;;;5029584;28;20211;-69
2023/09/23 06:10:15;;;;;;;2.50;1.15;;;13.30;99.90;;;;;;5037034;28;20228;-68
2023/09/23 06:12:43;;;;;;;1.00;0.75;;;13.30;99.90;;;;;;5036258;28;20208;-70
2023/09/23 06:15:11;;;;;;;1.92;1.30;;;13.30;99.90;;;;;;5021122;28;20715;-70
2023/09/23 06:17:39;;;;;;;1.17;1.08;;;13.40;99.90;;;;;;5028569;28;20196;-69
2023/09/23 06:20:08;;;;;;;1.75;0.88;;;13.70;99.90;;;;;;5044334;28;20764;-70
2023/09/23 06:22:38;;;;;;;1.48;0.98;;;13.70;99.90;;;;;;5041234;28;20209;-69
2023/09/23 06:25:07;;;;;;;6.57;1.30;;;13.80;99.90;;;;;;5040673;28;20585;-69
2023/09/23 06:27:36;;;;;;;2.70;0.88;;;13.60;99.90;;;;;;5032182;28;20266;-70
2023/09/23 06:30:05;;;;;;;3.22;0.80;;;13.40;99.90;;;;;;5032414;28;20947;-69
2023/09/23 06:32:33;;;;;;;1.80;1.10;;;13.10;99.90;;;;;;5021807;28;20620;-69
2023/09/23 06:35:01;;;;;;;2.70;1.38;;;13.30;99.90;;;;;;5033615;28;20617;-68
2023/09/23 06:37:29;;;;;;;1.83;1.35;;;13.60;99.90;;;;;;5037885;28;20287;-70
2023/09/23 06:39:58;;;;;;;0.80;0.80;;;13.50;99.90;;;;;;5033620;28;20228;-69
2023/09/23 06:42:26;;;;;;;1.35;1.00;;;13.80;99.90;;;;;;5027689;28;20209;-69
2023/09/23 06:44:54;;;;;;;1.30;0.95;;;13.80;99.90;;;;;;5036691;28;20201;-69
2023/09/23 06:47:22;;;;;;;1.27;0.98;;;13.80;99.90;;;;;;5036512;28;20209;-71
2023/09/23 06:49:50;;;;;;;1.40;1.17;;;13.60;99.90;;;;;;5043774;28;20645;-68
2023/09/23 06:52:19;;;;;;;1.15;1.05;;;13.70;99.90;;;;;;5026813;28;20750;-68
2023/09/23 06:54:46;;;;;;;2.50;1.10;;;13.70;99.90;;;;;;5035855;28;20700;-68
2023/09/23 06:57:16;;;;;;;1.60;1.48;;;13.50;99.90;;;;;;5030427;28;20208;-67
2023/09/23 06:59:45;;;;;;;0.95;0.95;;;13.90;99.90;;;;;;5015803;28;20679;-68
2023/09/23 07:02:13;;;;;;;1.15;0.95;;;13.70;99.90;;;;;;5039440;28;20816;-69
2023/09/23 07:04:41;;;;;;;1.30;1.20;;;13.50;99.90;;;;;;5033888;28;20200;-69
2023/09/23 07:07:09;;;;;;;1.40;1.30;;;13.70;99.90;;;;;;5031211;28;20201;-69
2023/09/23 07:09:37;;;;;;;1.30;1.20;;;13.50;99.90;;;;;;5029507;28;21005;-68
2023/09/23 07:12:06;;;;;;;1.50;1.40;;;13.40;99.90;;;;;;5021454;28;20290;-69
2023/09/23 07:14:36;;;;;;;1.40;1.20;;;13.60;99.90;;;;;;5019206;28;20216;-68
2023/09/23 07:17:06;;;;;;;1.33;1.23;;;13.70;99.90;;;;;;5017953;28;20217;-69
2023/09/23 07:19:34;;;;;;;1.30;1.20;;;13.60;99.90;;;;;;5018815;28;20303;-68
2023/09/23 07:22:03;;;;;;;1.20;1.10;;;13.60;99.90;;;;;;5019272;28;20207;-68
2023/09/23 07:24:34;;;;;;;1.23;1.10;;;13.90;99.90;;;;;;5019215;28;20208;-69
2023/09/23 07:27:02;;;;;;;5.35;4.70;;;14.20;99.90;;;;;;5019499;28;20205;-69
2023/09/23 07:29:33;;;;;;;1.40;1.30;;;14.50;99.90;;;;;;5019216;28;20652;-69
2023/09/23 07:32:02;;;;;;;3.22;1.85;;;14.80;99.90;;;;;;5017706;28;20207;-70
2023/09/23 07:34:30;;;;;;;1.45;1.35;;;15.00;99.90;;;;;;5019032;28;20212;-69
2023/09/23 07:36:58;;;;;;;2.47;1.25;;;14.80;99.90;;;;;;5019207;28;20205;-70
2023/09/23 07:39:28;;;;;;;1.50;1.40;;;14.90;99.90;;;;;;5019243;28;20340;-71
2023/09/23 07:41:56;;;;;;;1.30;1.17;;;15.20;99.90;;;;;;5017623;28;20220;-70
2023/09/23 07:44:23;;;;;;;1.50;1.40;;;15.10;99.90;;;;;;5019561;28;20457;-71
2023/09/23 07:46:52;;;;;;;2.03;1.30;;;15.40;99.90;;;;;;5018335;28;20286;-69
2023/09/23 07:49:21;;;;;;;1.23;1.13;;;15.50;99.90;;;;;;5019267;28;20310;-69
2023/09/23 07:51:49;;;;;;;2.72;2.20;;;15.40;99.90;;;;;;5018310;28;20315;-69
2023/09/23 07:54:17;;;;;;;1.90;1.50;;;15.20;99.90;;;;;;5019665;28;20633;-68
2023/09/23 07:56:47;;;;;;;1.90;1.48;;;15.30;99.90;;;;;;5019426;28;20207;-70
2023/09/23 07:59:15;;;;;;;1.35;1.23;;;15.10;99.90;;;;;;5018711;28;20232;-69
2023/09/23 08:01:43;;;;;;;1.30;1.20;;;15.10;99.90;;;;;;5016894;28;20208;-70
2023/09/23 08:04:11;;;;;;;1.45;1.35;;;15.10;99.90;;;;;;5018466;28;20799;-69
2023/09/23 08:06:40;;;;;;;1.30;0.90;;;15.00;99.90;;;;;;5018611;28;20208;-69
2023/09/23 08:09:09;;;;;;;7.95;2.15;;;15.20;99.90;;;;;;5018291;28;20240;-69
2023/09/23 08:11:37;;;;;;;2.03;1.05;;;15.30;99.90;;;;;;5017007;28;20303;-69
2023/09/23 08:14:05;;;;;;;1.40;0.82;;;15.70;99.90;;;;;;5018591;28;20769;-69
2023/09/23 08:16:33;;;;;;;1.58;1.00;;;15.80;99.90;;;;;;5017673;28;20219;-69
2023/09/23 08:19:01;;;;;;;2.65;1.23;;;15.80;99.90;;;;;;5019483;28;20224;-69
2023/09/23 08:21:29;;;;;;;1.20;1.10;;;15.50;99.90;;;;;;5016675;28;20212;-69
2023/09/23 08:23:58;;;;;;;0.98;0.85;;;15.20;99.90;;;;;;5018929;28;20236;-69
2023/09/23 08:26:26;;;;;;;1.08;0.80;;;15.10;99.90;;;;;;5017494;28;20219;-69
2023/09/23 08:28:56;;;;;;;1.63;1.27;;;15.20;99.90;;;;;;5021698;28;20303;-70
2023/09/23 08:31:24;;;;;;;5.28;1.15;;;15.40;99.90;;;;;;5020669;28;20331;-69
2023/09/23 08:33:52;;;;;;;1.35;1.00;;;15.50;99.90;;;;;;5023079;28;20261;-69
2023/09/23 08:36:20;;;;;;;1.42;0.90;;;15.70;99.90;;;;;;5022787;28;20204;-70
2023/09/23 08:38:48;;;;;;;1.75;1.10;;;15.80;99.90;;;;;;5021273;28;21001;-70
2023/09/23 08:41:22;;;;;;;1.05;0.80;;;16.10;99.90;;;;;;5021225;28;20219;-70
2023/09/23 08:43:52;;;;;;;1.00;0.85;;;16.20;99.90;;;;;;5022763;28;20803;-70
2023/09/23 08:46:22;;;;;;;1.13;0.82;;;16.50;99.90;;;;;;5022082;28;20259;-69
2023/09/23 08:48:50;;;;;;;3.63;0.90;;;16.50;99.90;;;;;;5021962;28;20208;-70
2023/09/23 08:51:20;;;;;;;1.10;0.80;;;16.50;99.90;;;;;;5020887;28;20339;-69
2023/09/23 08:53:52;;;;;;;0.80;0.70;;;16.60;99.90;;;;;;5021435;28;20299;-69
2023/09/23 08:56:21;;;;;;;1.52;0.80;;;16.90;99.90;;;;;;5021454;28;20311;-69
2023/09/23 08:58:50;;;;;;;1.50;1.25;;;17.30;99.90;;;;;;5021442;28;20223;-70
2023/09/23 09:01:18;;;;;;;1.60;1.00;;;17.50;99.90;;;;;;5019072;28;21571;-70
2023/09/23 09:03:47;;;;;;;1.23;0.80;;;17.60;99.90;;;;;;5021065;28;20212;-70
2023/09/23 09:06:18;;;;;;;0.80;0.70;;;17.70;99.90;;;;;;5021591;28;20213;-69
2023/09/23 09:08:46;;;;;;;1.42;0.77;;;17.40;99.90;;;;;;5022227;28;20282;-70
2023/09/23 09:11:23;;;;;;;0.60;0.50;;;17.30;99.90;;;;;;5020726;28;20224;-70
2023/09/23 09:13:52;;;;;;;1.13;1.02;;;17.60;99.90;;;;;;5021900;28;20211;-70
2023/09/23 09:16:20;;;;;;;2.63;0.77;;;17.90;99.90;;;;;;5020571;28;20209;-70
2023/09/23 09:18:51;;;;;;;1.38;1.00;;;18.00;99.90;;;;;;5020748;28;20213;-70
2023/09/23 09:21:20;;;;;;;1.70;1.00;;;18.00;99.90;;;;;;5020357;28;20577;-69
2023/09/23 09:23:48;;;;;;;1.25;0.90;;;18.30;99.90;;;;;;5020923;28;20212;-69
2023/09/23 09:26:18;;;;;;;0.70;0.63;;;18.20;99.90;;;;;;5022324;28;21147;-69
2023/09/23 09:28:48;;;;;;;4.15;1.25;;;18.10;99.90;;;;;;5021136;28;20217;-69
2023/09/23 09:31:18;;;;;;;1.95;0.68;;;17.80;99.90;;;;;;5019392;28;20804;-69
2023/09/23 09:33:48;;;;;;;0.60;0.52;;;17.90;99.90;;;;;;5021565;28;20315;-69
2023/09/23 09:36:19;;;;;;;2.08;0.63;;;18.10;99.90;;;;;;5019569;28;20215;-68
2023/09/23 09:38:51;;;;;;;1.08;0.70;;;17.90;99.90;;;;;;5020066;28;20224;-68
2023/09/23 09:41:25;;;;;;;1.77;1.60;;;17.90;99.90;;;;;;5019189;28;20204;-68
2023/09/23 09:43:55;;;;;;;1.45;0.90;;;17.60;99.90;;;;;;5020296;28;20286;-68
2023/09/23 09:46:27;;;;;;;0.70;0.68;;;17.70;99.90;;;;;;5021398;28;20255;-68
2023/09/23 09:48:57;;;;;;;1.25;0.95;;;17.90;99.90;;;;;;5021458;28;20216;-68
2023/09/23 09:51:25;;;;;;;0.75;0.52;;;18.00;99.90;;;;;;5018821;28;20747;-68
2023/09/23 09:53:53;;;;;;;0.80;0.60;;;18.20;99.90;;;;;;5021203;28;20683;-69
2023/09/23 09:56:22;;;;;;;1.52;0.60;;;18.60;99.90;;;;;;5020819;28;20219;-69
2023/09/23 09:58:50;;;;;;;0.80;0.70;;;18.60;99.90;;;;;;5020975;28;20215;-69
2023/09/23 10:01:19;;;;;;;1.00;0.50;;;18.80;99.90;;;;;;5018925;28;20351;-69
2023/09/23 10:03:49;;;;;;;0.90;0.70;;;18.80;99.90;;;;;;5021315;28;20222;-69
2023/09/23 10:06:19;;;;;;;2.75;0.80;;;18.70;99.90;;;;;;5021096;28;20231;-70
2023/09/23 10:08:48;;;;;;;0.60;0.40;;;18.90;99.90;;;;;;5020422;28;20204;-69
2023/09/23 10:11:17;;;;;;;0.90;0.70;;;18.80;99.90;;;;;;5019109;28;20587;-69
2023/09/23 10:13:46;;;;;;;1.45;1.13;;;18.60;99.90;;;;;;5020793;28;20236;-70
2023/09/23 10:16:17;;;;;;;1.88;1.05;;;18.40;99.90;;;;;;5021013;28;20212;-69
2023/09/23 10:18:55;;;;;;;0.73;0.60;;;18.30;99.90;;;;;;5021038;28;20212;-69
2023/09/23 10:21:24;;;;;;;0.70;0.60;;;18.10;99.90;;;;;;5020344;28;20207;-69
2023/09/23 10:23:52;;;;;;;0.90;0.63;;;18.10;99.90;;;;;;5019487;28;20299;-69
2023/09/23 10:26:23;;;;;;;1.65;0.60;;;18.20;99.90;;;;;;5020608;28;20229;-69
2023/09/23 10:28:58;;;;;;;1.40;0.80;;;18.40;99.90;;;;;;5020631;28;20334;-69
2023/09/23 10:31:27;;;;;;;7.20;3.45;;;18.40;99.90;;;;;;5017337;28;20227;-69
2023/09/23 10:33:57;;;;;;;3.05;0.82;;;18.30;99.90;;;;;;5020725;28;20223;-68
2023/09/23 10:36:26;;;;;;;1.17;0.70;;;18.10;99.90;;;;;;5020636;28;20213;-68
2023/09/23 10:38:55;;;;;;;1.98;1.00;;;18.40;99.90;;;;;;5019474;28;21319;-69
2023/09/23 10:41:32;;;;;;;1.52;0.70;;;18.80;99.90;;;;;;5018127;28;20201;-71
2023/09/23 10:44:00;;;;;;;2.60;0.63;;;19.30;99.90;;;;;;5020249;28;20287;-70
2023/09/23 10:46:28;;;;;;;0.80;0.80;;;19.80;99.90;;;;;;5019924;28;20217;-70
2023/09/23 10:48:59;;;;;;;0.70;0.60;;;20.00;99.90;;;;;;5019859;28;20391;-70
2023/09/23 10:51:28;;;;;;;0.98;0.70;;;20.00;99.90;;;;;;5017214;28;20333;-70
2023/09/23 10:53:57;;;;;;;1.38;1.02;;;19.80;99.90;;;;;;5020207;28;20451;-70
2023/09/23 10:56:26;;;;;;;2.08;0.70;;;19.80;99.90;;;;;;5019760;28;20209;-69
2023/09/23 10:58:55;;;;;;;1.60;0.65;;;20.10;99.90;;;;;;5019731;28;20219;-69
2023/09/23 11:01:24;;;;;;;1.23;0.73;;;20.50;99.90;;;;;;5017371;28;20271;-70
2023/09/23 11:03:54;;;;;;;0.70;0.50;;;20.60;99.90;;;;;;5019607;28;20212;-70
2023/09/23 11:06:24;;;;;;;2.08;0.80;;;20.60;99.90;;;;;;5020055;28;20263;-70
2023/09/23 11:08:52;;;;;;;1.13;0.70;;;20.70;99.90;;;;;;5019208;28;20215;-70
2023/09/23 11:11:20;;;;;;;0.65;0.60;;;21.00;99.90;;;;;;5018202;28;20236;-70
2023/09/23 11:13:50;;;;;;;1.85;0.55;;;21.10;99.90;;;;;;5019047;28;20216;-70
2023/09/23 11:16:18;;;;;;;1.13;0.60;;;21.40;99.90;;;;;;5019176;28;20219;-70
2023/09/23 11:18:47;;;;;;;1.30;0.80;;;21.60;99.90;;;;;;5019451;28;20737;-70
2023/09/23 11:21:16;;;;;;;1.35;0.70;;;21.50;99.90;;;;;;5018336;28;20303;-70
2023/09/23 11:23:45;;;;;;;2.13;1.30;;;21.30;99.90;;;;;;5018452;28;20235;-70
2023/09/23 11:26:14;;;;;;;4.82;2.42;;;20.90;99.90;;;;;;5019832;28;20236;-70
2023/09/23 11:28:42;;;;;;;0.90;0.77;;;20.50;99.90;;;;;;5018633;28;20691;-69
2023/09/23 11:31:10;;;;;;;1.10;0.70;;;20.30;99.90;;;;;;5016879;28;20240;-70
2023/09/23 11:33:38;;;;;;;1.15;1.00;;;20.50;99.90;;;;;;5018066;28;20219;-70
2023/09/23 11:36:06;;;;;;;1.05;0.65;;;20.90;99.90;;;;;;5019627;28;20216;-71
2023/09/23 11:38:34;;;;;;;0.70;0.55;;;21.30;99.90;;;;;;5019476;28;21195;-70
2023/09/23 11:41:04;;;;;;;0.77;0.65;;;21.40;99.90;;;;;;5017881;28;20236;-71
2023/09/23 11:43:32;;;;;;;1.88;0.60;;;21.80;99.90;;;;;;5019325;28;20205;-70
2023/09/23 11:46:00;;;;;;;1.30;0.65;;;22.10;99.90;;;;;;5019163;28;20577;-71
2023/09/23 11:48:35;;;;;;;0.60;0.55;;;22.20;99.90;;;;;;5018086;28;20692;-71
2023/09/23 11:51:03;;;;;;;1.35;0.60;;;22.30;99.90;;;;;;5016710;28;20749;-70
2023/09/23 11:53:31;;;;;;;1.20;0.60;;;22.50;99.90;;;;;;5019083;28;20695;-69
2023/09/23 11:55:59;;;;;;;1.60;0.75;;;22.80;99.90;;;;;;5019087;28;20291;-68
2023/09/23 11:58:28;;;;;;;0.60;0.50;;;22.30;99.90;;;;;;5019467;28;20894;-70
2023/09/23 12:00:56;;;;;;;4.50;0.80;;;22.40;99.90;;;;;;5015971;28;20256;-69
2023/09/23 12:03:25;;;;;;;1.55;0.60;;;22.50;99.90;;;;;;5018826;28;20209;-69
2023/09/23 12:05:54;;;;;;;0.70;0.60;;;22.70;99.90;;;;;;5018962;28;20295;-69
2023/09/23 12:08:22;;;;;;;1.25;0.80;;;23.20;99.90;;;;;;5018964;28;20217;-69
2023/09/23 12:10:50;;;;;;;2.17;0.75;;;23.60;99.90;;;;;;5017370;28;20236;-70
2023/09/23 12:13:18;;;;;;;0.80;0.70;;;23.60;99.90;;;;;;5018106;28;20223;-69
2023/09/23 12:15:47;;;;;;;0.68;0.50;;;23.90;99.00;;;;;;5018874;28;20214;-69
2023/09/23 12:18:16;;;;;;;1.02;0.70;;;24.00;99.10;;;;;;5019116;28;20311;-69
2023/09/23 12:20:44;;;;;;;0.80;0.70;;;24.40;98.70;;;;;;5017105;28;20229;-70
2023/09/23 12:23:15;;;;;;;2.83;0.80;;;24.30;99.90;;;;;;5018377;28;20212;-70
2023/09/23 12:25:43;;;;;;;1.17;0.70;;;23.90;99.40;;;;;;5018863;28;20291;-69
2023/09/23 12:28:12;;;;;;;1.80;0.95;;;23.20;99.90;;;;;;5018788;28;20210;-70
2023/09/23 12:30:39;;;;;;;0.80;0.57;;;22.50;99.90;;;;;;5017631;28;20224;-69
2023/09/23 12:33:09;;;;;;;1.15;0.55;;;21.90;99.90;;;;;;5018647;28;21016;-70
2023/09/23 12:35:40;;;;;;;1.25;0.93;;;22.10;99.90;;;;;;5018870;28;20236;-69
2023/09/23 12:38:10;;;;;;;1.60;0.70;;;21.80;99.90;;;;;;5018871;28;20331;-70
2023/09/23 12:40:39;;;;;;;1.30;1.20;;;21.50;99.90;;;;;;5017285;28;20878;-69
2023/09/23 12:43:07;;;;;;;1.10;0.82;;;21.00;99.90;;;;;;5018486;28;20218;-69
2023/09/23 12:45:35;;;;;;;1.67;0.90;;;20.60;99.90;;;;;;5018569;28;20628;-69
2023/09/23 12:48:03;;;;;;;1.35;0.60;;;20.30;99.90;;;;;;5018413;28;20201;-69
2023/09/23 12:50:32;;;;;;;0.80;0.60;;;20.30;99.90;;;;;;5017410;28;20271;-70
2023/09/23 12:53:01;;;;;;;0.90;0.63;;;20.20;99.90;;;;;;5017579;28;20290;-68
2023/09/23 12:55:29;;;;;;;3.70;2.20;;;20.30;99.90;;;;;;5018353;28;20201;-69
2023/09/23 12:57:57;;;;;;;1.15;0.90;;;20.20;99.90;;;;;;5019090;28;20251;-69